createdAt,value
2017-10-29T00:00:33.474Z,7.95
2017-10-29T00:01:36.925Z,8.55
2017-10-29T00:02:39.476Z,8.32
2017-10-29T00:03:42.253Z,7.25
2017-10-29T00:04:44.737Z,7.60
2017-10-29T00:05:47.355Z,7.85
2017-10-29T00:06:49.831Z,6.30
2017-10-29T00:07:53.174Z,6.85
2017-10-29T00:08:56.807Z,7.60
2017-10-29T00:10:00.295Z,7.62
2017-10-29T00:11:03.790Z,6.12
2017-10-29T00:12:11.743Z,6.55
2017-10-29T00:13:20.821Z,5.70
2017-10-29T00:14:23.866Z,6.47
2017-10-29T00:15:26.708Z,6.00
2017-10-29T00:16:29.986Z,7.43
2017-10-29T00:17:33.444Z,5.25
2017-10-29T00:18:36.770Z,4.65
2017-10-29T00:19:43.208Z,4.25
2017-10-29T00:20:46.311Z,4.47
2017-10-29T00:21:50.032Z,3.97
2017-10-29T00:22:52.545Z,5.00
2017-10-29T00:23:56.802Z,4.32
2017-10-29T00:25:00.913Z,4.22
2017-10-29T00:26:05.355Z,3.75
2017-10-29T00:27:07.840Z,4.40
2017-10-29T00:28:11.700Z,3.97
2017-10-29T00:29:16.286Z,3.37
2017-10-29T00:30:20.947Z,3.50
2017-10-29T00:31:24.016Z,3.60
2017-10-29T00:32:27.883Z,3.25
2017-10-29T00:33:31.982Z,3.50
2017-10-29T00:34:35.329Z,3.25
2017-10-29T00:35:40.534Z,3.10
2017-10-29T00:36:44.886Z,3.35
2017-10-29T00:37:49.433Z,3.85
2017-10-29T00:38:52.712Z,4.10
2017-10-29T00:40:00.498Z,3.90
2017-10-29T00:41:03.416Z,3.50
2017-10-29T00:42:06.008Z,4.00
2017-10-29T00:43:09.558Z,3.70
2017-10-29T00:44:12.147Z,4.05
2017-10-29T00:45:14.902Z,4.22
2017-10-29T00:46:17.439Z,3.75
2017-10-29T00:47:21.112Z,3.50
2017-10-29T00:48:24.404Z,4.03
2017-10-29T00:49:27.116Z,4.15
2017-10-29T00:50:29.598Z,4.18
2017-10-29T00:51:32.162Z,3.75
2017-10-29T00:52:34.668Z,4.00
2017-10-29T00:53:37.172Z,3.87
2017-10-29T00:54:39.743Z,4.37
2017-10-29T00:55:42.503Z,4.15
2017-10-29T00:56:45.014Z,4.65
2017-10-29T00:57:48.489Z,4.15
2017-10-29T00:58:50.982Z,4.50
2017-10-29T00:59:54.411Z,3.95
2017-10-29T01:00:56.906Z,4.25
2017-10-29T01:01:59.824Z,4.70
2017-10-29T01:03:02.314Z,3.87
2017-10-29T01:04:05.099Z,4.60
2017-10-29T01:05:07.604Z,4.75
2017-10-29T01:06:11.229Z,4.05
2017-10-29T01:07:13.748Z,5.00
2017-10-29T01:08:16.396Z,5.05
2017-10-29T01:09:18.885Z,5.53
2017-10-29T01:10:21.392Z,5.40
2017-10-29T01:11:24.101Z,5.65
2017-10-29T01:12:26.628Z,4.90
2017-10-29T01:13:29.497Z,5.22
2017-10-29T01:14:31.992Z,5.50
2017-10-29T01:15:34.759Z,5.35
2017-10-29T01:16:37.333Z,4.22
2017-10-29T01:17:40.288Z,4.65
2017-10-29T01:18:42.845Z,6.95
2017-10-29T01:19:45.449Z,6.20
2017-10-29T01:20:47.977Z,5.93
2017-10-29T01:21:50.638Z,4.97
2017-10-29T01:22:53.161Z,4.93
2017-10-29T01:23:57.676Z,4.60
2017-10-29T01:25:00.192Z,4.75
2017-10-29T01:26:02.980Z,3.53
2017-10-29T01:27:05.513Z,4.90
2017-10-29T01:28:08.044Z,4.90
2017-10-29T01:29:10.566Z,4.25
2017-10-29T01:30:14.300Z,4.05
2017-10-29T01:31:16.817Z,4.70
2017-10-29T01:32:19.330Z,3.75
2017-10-29T01:33:21.835Z,4.82
2017-10-29T01:34:25.291Z,4.90
2017-10-29T01:35:27.807Z,4.65
2017-10-29T01:36:30.296Z,4.87
2017-10-29T01:37:33.135Z,4.55
2017-10-29T01:38:37.852Z,4.50
2017-10-29T01:39:40.426Z,3.83
2017-10-29T01:40:43.124Z,3.17
2017-10-29T01:41:45.606Z,3.58
2017-10-29T01:42:48.417Z,3.45
2017-10-29T01:43:51.830Z,2.80
2017-10-29T01:44:54.428Z,2.85
2017-10-29T01:45:56.902Z,3.72
2017-10-29T01:46:59.607Z,2.80
2017-10-29T01:48:02.923Z,3.00
2017-10-29T01:49:05.733Z,2.92
2017-10-29T01:50:08.239Z,2.97
2017-10-29T01:51:10.742Z,2.60
2017-10-29T01:52:13.224Z,2.10
2017-10-29T01:53:17.332Z,3.05
2017-10-29T01:54:19.800Z,2.75
2017-10-29T01:55:22.685Z,2.30
2017-10-29T01:56:25.190Z,3.03
2017-10-29T01:57:27.983Z,2.10
2017-10-29T01:58:30.551Z,3.03
2017-10-29T01:59:33.497Z,2.42
2017-10-29T02:00:36.006Z,2.47
2017-10-29T02:01:38.676Z,2.37
2017-10-29T02:02:41.186Z,2.70
2017-10-29T02:03:44.700Z,3.00
2017-10-29T02:04:47.210Z,3.08
2017-10-29T02:05:50.167Z,2.50
2017-10-29T02:06:52.647Z,3.00
2017-10-29T02:07:55.295Z,2.78
2017-10-29T02:08:57.782Z,2.95
2017-10-29T02:10:00.319Z,3.40
2017-10-29T02:11:02.865Z,2.30
2017-10-29T02:12:05.680Z,2.33
2017-10-29T02:13:08.168Z,3.55
2017-10-29T02:14:11.619Z,1.90
2017-10-29T02:15:14.291Z,2.70
2017-10-29T02:16:17.132Z,2.30
2017-10-29T02:17:19.641Z,3.05
2017-10-29T02:18:22.291Z,3.25
2017-10-29T02:19:25.459Z,3.35
2017-10-29T02:20:28.252Z,3.00
2017-10-29T02:21:30.729Z,3.10
2017-10-29T02:22:33.301Z,3.12
2017-10-29T02:23:35.780Z,2.87
2017-10-29T02:24:38.340Z,3.58
2017-10-29T02:25:40.828Z,3.95
2017-10-29T02:26:44.327Z,4.05
2017-10-29T02:27:47.005Z,4.70
2017-10-29T02:28:49.604Z,4.05
2017-10-29T02:29:52.081Z,4.30
2017-10-29T02:30:55.563Z,4.50
2017-10-29T02:31:58.082Z,4.10
2017-10-29T02:33:00.583Z,5.97
2017-10-29T02:34:03.104Z,4.65
2017-10-29T02:35:06.528Z,4.50
2017-10-29T02:36:09.008Z,3.62
2017-10-29T02:37:11.563Z,3.45
2017-10-29T02:38:14.044Z,3.83
2017-10-29T02:39:17.546Z,3.47
2017-10-29T02:40:20.128Z,2.70
2017-10-29T02:41:23.485Z,2.87
2017-10-29T02:42:25.964Z,2.25
2017-10-29T02:43:28.519Z,2.00
2017-10-29T02:44:31.011Z,2.08
2017-10-29T02:45:34.494Z,1.85
2017-10-29T02:46:37.633Z,2.25
2017-10-29T02:47:40.405Z,2.10
2017-10-29T02:48:42.905Z,2.20
2017-10-29T02:49:53.459Z,1.65
2017-10-29T02:50:55.969Z,2.10
2017-10-29T02:51:58.483Z,2.00
2017-10-29T02:53:00.964Z,2.80
2017-10-29T02:54:04.274Z,2.97
2017-10-29T02:55:07.535Z,2.92
2017-10-29T02:56:10.990Z,2.47
2017-10-29T02:57:13.474Z,2.28
2017-10-29T02:58:16.113Z,2.20
2017-10-29T02:59:18.596Z,1.90
2017-10-29T03:00:22.368Z,3.30
2017-10-29T03:01:24.938Z,2.28
2017-10-29T03:02:27.614Z,2.17
2017-10-29T03:03:30.147Z,2.12
2017-10-29T03:04:32.674Z,2.95
2017-10-29T03:05:35.183Z,2.92
2017-10-29T03:06:37.663Z,2.35
2017-10-29T03:07:40.172Z,2.85
2017-10-29T03:08:45.967Z,2.40
2017-10-29T03:09:52.789Z,2.37
2017-10-29T03:10:56.692Z,3.30
2017-10-29T03:12:03.375Z,2.62
2017-10-29T03:13:11.390Z,2.33
2017-10-29T03:14:15.082Z,2.25
2017-10-29T03:15:22.512Z,2.65
2017-10-29T03:16:27.578Z,3.55
2017-10-29T03:17:32.192Z,2.65
2017-10-29T03:18:37.686Z,4.10
2017-10-29T03:19:43.158Z,2.92
2017-10-29T03:20:46.830Z,3.20
2017-10-29T03:21:54.988Z,3.45
2017-10-29T03:22:59.413Z,3.80
2017-10-29T03:24:02.776Z,3.53
2017-10-29T03:25:05.978Z,2.53
2017-10-29T03:26:08.758Z,3.30
2017-10-29T03:27:11.267Z,3.65
2017-10-29T03:28:13.760Z,2.72
2017-10-29T03:29:17.039Z,2.08
2017-10-29T03:30:20.405Z,2.53
2017-10-29T03:31:23.439Z,2.10
2017-10-29T03:32:26.015Z,2.70
2017-10-29T03:33:32.248Z,3.30
2017-10-29T03:34:35.485Z,3.40
2017-10-29T03:35:39.701Z,3.00
2017-10-29T03:36:52.408Z,2.75
2017-10-29T03:37:55.481Z,3.75
2017-10-29T03:39:01.792Z,3.22
2017-10-29T03:40:04.795Z,2.33
2017-10-29T03:41:08.002Z,2.65
2017-10-29T03:42:11.504Z,2.87
2017-10-29T03:43:14.167Z,2.95
2017-10-29T03:44:16.754Z,3.25
2017-10-29T03:45:19.528Z,2.53
2017-10-29T03:46:23.583Z,3.08
2017-10-29T03:47:26.817Z,2.92
2017-10-29T03:48:29.291Z,3.30
2017-10-29T03:49:33.352Z,3.08
2017-10-29T03:50:35.841Z,3.78
2017-10-29T03:51:38.605Z,2.90
2017-10-29T03:52:41.149Z,3.35
2017-10-29T03:53:44.467Z,3.30
2017-10-29T03:54:48.632Z,3.50
2017-10-29T03:55:51.109Z,3.80
2017-10-29T03:56:55.676Z,3.95
2017-10-29T03:58:03.143Z,3.12
2017-10-29T03:59:06.984Z,4.53
2017-10-29T04:00:10.822Z,3.70
2017-10-29T04:01:16.179Z,3.25
2017-10-29T04:02:23.599Z,3.75
2017-10-29T04:04:35.258Z,3.65
2017-10-29T04:05:38.543Z,4.10
2017-10-29T04:06:42.093Z,4.55
2017-10-29T04:07:44.584Z,4.60
2017-10-29T04:08:48.103Z,3.90
2017-10-29T04:09:50.582Z,3.10
2017-10-29T04:10:53.083Z,4.30
2017-10-29T04:11:55.583Z,4.12
2017-10-29T04:12:59.140Z,3.22
2017-10-29T04:14:01.623Z,4.60
2017-10-29T04:15:04.996Z,3.90
2017-10-29T04:16:07.495Z,5.65
2017-10-29T04:17:10.120Z,4.05
2017-10-29T04:18:12.611Z,4.10
2017-10-29T04:19:15.978Z,5.05
2017-10-29T04:20:18.462Z,4.37
2017-10-29T04:21:21.943Z,3.80
2017-10-29T04:22:24.445Z,4.75
2017-10-29T04:23:26.938Z,4.85
2017-10-29T04:24:29.418Z,3.92
2017-10-29T04:25:31.970Z,4.47
2017-10-29T04:26:34.468Z,5.68
2017-10-29T04:27:37.970Z,3.62
2017-10-29T04:28:41.207Z,4.82
2017-10-29T04:29:43.936Z,4.32
2017-10-29T04:30:47.644Z,4.65
2017-10-29T04:31:51.447Z,4.53
2017-10-29T04:32:55.089Z,4.37
2017-10-29T04:34:02.353Z,4.35
2017-10-29T04:35:06.245Z,4.03
2017-10-29T04:36:09.130Z,4.10
2017-10-29T04:37:11.645Z,4.15
2017-10-29T04:38:14.131Z,3.78
2017-10-29T04:39:16.712Z,3.42
2017-10-29T04:40:19.485Z,4.22
2017-10-29T04:41:21.965Z,4.40
2017-10-29T04:42:25.459Z,3.70
2017-10-29T04:43:27.975Z,4.18
2017-10-29T04:44:30.535Z,4.10
2017-10-29T04:45:33.205Z,3.20
2017-10-29T04:46:35.802Z,3.50
2017-10-29T04:47:38.291Z,3.87
2017-10-29T04:48:40.855Z,4.40
2017-10-29T04:49:43.336Z,4.00
2017-10-29T04:50:46.803Z,4.68
2017-10-29T04:51:49.431Z,3.83
2017-10-29T04:52:52.129Z,3.47
2017-10-29T04:53:54.628Z,3.50
2017-10-29T04:54:57.150Z,4.18
2017-10-29T04:55:59.632Z,3.85
2017-10-29T04:57:02.261Z,4.65
2017-10-29T04:58:04.759Z,4.55
2017-10-29T04:59:07.557Z,3.42
2017-10-29T05:00:10.040Z,4.10
2017-10-29T05:01:13.500Z,4.30
2017-10-29T05:02:17.591Z,3.87
2017-10-29T05:03:20.394Z,3.90
2017-10-29T05:04:23.888Z,4.35
2017-10-29T05:05:27.152Z,3.85
2017-10-29T05:06:30.064Z,3.95
2017-10-29T05:07:33.331Z,4.40
2017-10-29T05:08:36.873Z,4.20
2017-10-29T05:09:39.373Z,4.43
2017-10-29T05:10:42.110Z,2.97
2017-10-29T05:11:44.587Z,3.58
2017-10-29T05:12:48.054Z,3.85
2017-10-29T05:13:50.527Z,3.45
2017-10-29T05:14:53.102Z,2.95
2017-10-29T05:15:55.733Z,4.22
2017-10-29T05:16:58.439Z,3.97
2017-10-29T05:18:00.921Z,3.50
2017-10-29T05:19:03.675Z,4.05
2017-10-29T05:20:06.206Z,4.25
2017-10-29T05:21:08.836Z,3.42
2017-10-29T05:22:11.311Z,3.17
2017-10-29T05:23:14.748Z,4.72
2017-10-29T05:24:17.498Z,4.00
2017-10-29T05:25:20.133Z,4.57
2017-10-29T05:26:23.601Z,4.20
2017-10-29T05:27:27.171Z,4.40
2017-10-29T05:28:29.655Z,3.78
2017-10-29T05:29:34.075Z,5.37
2017-10-29T05:30:37.754Z,5.60
2017-10-29T05:31:41.725Z,5.70
2017-10-29T05:32:45.831Z,5.12
2017-10-29T05:33:49.654Z,3.97
2017-10-29T05:34:54.048Z,3.97
2017-10-29T05:35:58.211Z,4.62
2017-10-29T05:37:01.476Z,4.75
2017-10-29T05:38:04.756Z,4.20
2017-10-29T05:39:07.992Z,4.82
2017-10-29T05:40:12.599Z,4.70
2017-10-29T05:41:16.999Z,4.32
2017-10-29T05:42:24.368Z,3.85
2017-10-29T05:43:32.947Z,6.53
2017-10-29T05:44:38.041Z,5.53
2017-10-29T05:45:42.053Z,4.72
2017-10-29T05:46:45.141Z,5.72
2017-10-29T05:47:47.680Z,4.60
2017-10-29T05:48:51.182Z,5.53
2017-10-29T05:49:53.677Z,4.75
2017-10-29T05:50:56.498Z,5.15
2017-10-29T05:51:58.977Z,5.35
2017-10-29T05:53:02.794Z,4.43
2017-10-29T05:54:05.443Z,4.97
2017-10-29T05:55:08.032Z,4.40
2017-10-29T05:56:10.513Z,4.80
2017-10-29T05:57:13.059Z,6.25
2017-10-29T05:58:15.554Z,4.82
2017-10-29T05:59:19.017Z,5.68
2017-10-29T06:00:21.504Z,4.85
2017-10-29T06:01:25.027Z,5.30
2017-10-29T06:02:27.525Z,4.43
2017-10-29T06:03:30.326Z,6.40
2017-10-29T06:04:37.236Z,4.60
2017-10-29T06:05:39.803Z,4.62
2017-10-29T06:06:42.305Z,5.32
2017-10-29T06:07:45.076Z,6.97
2017-10-29T06:08:47.702Z,5.72
2017-10-29T06:09:50.180Z,5.12
2017-10-29T06:10:52.683Z,5.00
2017-10-29T06:11:56.023Z,5.35
2017-10-29T06:12:58.703Z,5.80
2017-10-29T06:14:01.249Z,4.90
2017-10-29T06:15:04.029Z,5.30
2017-10-29T06:16:06.549Z,5.72
2017-10-29T06:17:10.559Z,5.50
2017-10-29T06:18:13.035Z,6.20
2017-10-29T06:19:16.497Z,4.97
2017-10-29T06:20:19.938Z,5.53
2017-10-29T06:21:22.504Z,6.18
2017-10-29T06:22:24.990Z,6.43
2017-10-29T06:23:27.496Z,5.78
2017-10-29T06:24:32.149Z,4.60
2017-10-29T06:25:36.755Z,6.80
2017-10-29T06:26:42.100Z,6.20
2017-10-29T06:27:51.610Z,5.30
2017-10-29T06:28:56.248Z,5.20
2017-10-29T06:30:00.772Z,6.00
2017-10-29T06:31:04.016Z,6.45
2017-10-29T06:32:07.242Z,5.53
2017-10-29T06:33:09.729Z,6.53
2017-10-29T06:34:12.312Z,5.95
2017-10-29T06:35:15.819Z,6.05
2017-10-29T06:36:19.298Z,4.95
2017-10-29T06:37:22.583Z,5.40
2017-10-29T06:38:26.057Z,7.22
2017-10-29T06:39:29.412Z,5.10
2017-10-29T06:40:32.634Z,5.57
2017-10-29T06:41:35.135Z,6.12
2017-10-29T06:42:38.824Z,5.47
2017-10-29T06:43:43.373Z,5.85
2017-10-29T06:44:48.277Z,5.22
2017-10-29T06:45:59.308Z,4.65
2017-10-29T06:47:04.636Z,5.05
2017-10-29T06:48:08.816Z,6.25
2017-10-29T06:49:11.490Z,5.18
2017-10-29T06:50:15.844Z,6.97
2017-10-29T06:51:19.555Z,5.20
2017-10-29T06:52:37.053Z,5.65
2017-10-29T06:53:41.782Z,7.22
2017-10-29T06:54:46.916Z,8.00
2017-10-29T06:55:50.999Z,6.00
2017-10-29T06:57:00.390Z,5.00
2017-10-29T06:58:02.891Z,4.95
2017-10-29T06:59:05.618Z,6.60
2017-10-29T07:00:08.128Z,5.18
2017-10-29T07:01:10.697Z,5.75
2017-10-29T07:02:13.213Z,5.62
2017-10-29T07:03:17.493Z,6.70
2017-10-29T07:04:20.261Z,5.68
2017-10-29T07:05:22.824Z,5.87
2017-10-29T07:06:25.299Z,6.90
2017-10-29T07:07:27.887Z,6.12
2017-10-29T07:08:30.859Z,5.95
2017-10-29T07:09:34.405Z,5.90
2017-10-29T07:10:37.025Z,5.30
2017-10-29T07:11:39.776Z,6.30
2017-10-29T07:12:42.287Z,4.80
2017-10-29T07:13:45.765Z,5.30
2017-10-29T07:14:48.266Z,6.00
2017-10-29T07:15:50.793Z,4.87
2017-10-29T07:16:53.297Z,7.87
2017-10-29T07:17:56.172Z,5.82
2017-10-29T07:18:58.661Z,5.05
2017-10-29T07:20:01.153Z,5.68
2017-10-29T07:21:03.639Z,5.55
2017-10-29T07:22:07.329Z,6.47
2017-10-29T07:23:10.387Z,4.53
2017-10-29T07:24:15.565Z,4.82
2017-10-29T07:25:18.696Z,5.75
2017-10-29T07:26:22.655Z,5.43
2017-10-29T07:27:28.197Z,5.62
2017-10-29T07:28:30.798Z,5.72
2017-10-29T07:29:34.776Z,4.70
2017-10-29T07:30:37.351Z,5.55
2017-10-29T07:31:39.911Z,5.78
2017-10-29T07:32:42.433Z,5.00
2017-10-29T07:33:45.686Z,5.53
2017-10-29T07:34:48.349Z,5.20
2017-10-29T07:35:50.973Z,5.45
2017-10-29T07:36:53.695Z,5.60
2017-10-29T07:37:56.368Z,6.05
2017-10-29T07:38:59.673Z,5.97
2017-10-29T07:40:02.983Z,4.82
2017-10-29T07:41:06.796Z,4.53
2017-10-29T07:42:09.339Z,5.03
2017-10-29T07:43:12.325Z,4.85
2017-10-29T07:44:15.050Z,5.53
2017-10-29T07:45:18.755Z,5.87
2017-10-29T07:46:24.237Z,4.18
2017-10-29T07:47:28.421Z,5.30
2017-10-29T07:48:32.937Z,6.37
2017-10-29T07:49:36.629Z,4.75
2017-10-29T07:50:39.195Z,5.15
2017-10-29T07:51:41.794Z,5.70
2017-10-29T07:52:44.306Z,5.65
2017-10-29T07:53:48.172Z,7.00
2017-10-29T07:54:50.771Z,3.62
2017-10-29T07:55:54.079Z,6.32
2017-10-29T07:56:56.611Z,5.18
2017-10-29T07:58:00.031Z,5.65
2017-10-29T07:59:02.597Z,4.47
2017-10-29T08:00:05.471Z,5.78
2017-10-29T08:01:08.038Z,4.97
2017-10-29T08:02:10.708Z,3.92
2017-10-29T08:03:13.289Z,4.05
2017-10-29T08:04:15.995Z,4.75
2017-10-29T08:05:19.401Z,4.25
2017-10-29T08:06:22.892Z,3.58
2017-10-29T08:07:26.257Z,3.97
2017-10-29T08:08:28.851Z,5.10
2017-10-29T08:09:32.292Z,4.32
2017-10-29T08:10:34.855Z,3.28
2017-10-29T08:11:37.338Z,5.20
2017-10-29T08:12:40.161Z,4.10
2017-10-29T08:13:42.700Z,3.90
2017-10-29T08:14:51.138Z,4.47
2017-10-29T08:15:53.701Z,4.07
2017-10-29T08:16:57.413Z,3.40
2017-10-29T08:18:00.232Z,3.53
2017-10-29T08:19:03.508Z,4.45
2017-10-29T08:20:06.849Z,4.30
2017-10-29T08:21:10.585Z,4.00
2017-10-29T08:22:13.507Z,4.30
2017-10-29T08:23:19.252Z,4.62
2017-10-29T08:24:32.305Z,4.05
2017-10-29T08:25:36.669Z,4.93
2017-10-29T08:26:39.795Z,4.37
2017-10-29T08:27:42.312Z,4.22
2017-10-29T08:28:46.039Z,5.95
2017-10-29T08:29:50.432Z,4.40
2017-10-29T08:30:54.829Z,5.00
2017-10-29T08:31:59.838Z,5.03
2017-10-29T08:33:04.331Z,4.78
2017-10-29T08:34:10.237Z,4.90
2017-10-29T08:35:13.812Z,5.10
2017-10-29T08:36:17.372Z,5.25
2017-10-29T08:37:21.902Z,5.72
2017-10-29T08:38:26.114Z,4.43
2017-10-29T08:39:29.906Z,6.62
2017-10-29T08:40:32.473Z,4.30
2017-10-29T08:41:37.500Z,5.45
2017-10-29T08:42:41.394Z,4.30
2017-10-29T08:43:44.471Z,4.43
2017-10-29T08:44:48.643Z,4.32
2017-10-29T08:45:53.578Z,4.45
2017-10-29T08:46:57.601Z,5.72
2017-10-29T08:48:00.678Z,3.65
2017-10-29T08:49:03.336Z,4.47
2017-10-29T08:50:12.263Z,4.65
2017-10-29T08:51:20.665Z,4.78
2017-10-29T08:52:25.742Z,4.75
2017-10-29T08:53:28.240Z,5.32
2017-10-29T08:54:31.068Z,4.20
2017-10-29T08:55:33.645Z,4.97
2017-10-29T08:56:36.283Z,4.18
2017-10-29T08:57:39.500Z,4.53
2017-10-29T08:58:44.076Z,5.80
2017-10-29T08:59:46.887Z,4.03
2017-10-29T09:00:50.550Z,4.18
2017-10-29T09:01:53.063Z,5.35
2017-10-29T09:02:55.666Z,6.00
2017-10-29T09:03:58.233Z,5.43
2017-10-29T09:05:00.978Z,5.03
2017-10-29T09:06:06.236Z,4.97
2017-10-29T09:07:09.820Z,3.92
2017-10-29T09:08:13.128Z,4.37
2017-10-29T09:09:15.623Z,6.25
2017-10-29T09:10:20.068Z,4.80
2017-10-29T09:11:24.483Z,4.95
2017-10-29T09:12:28.075Z,4.93
2017-10-29T09:13:31.339Z,5.30
2017-10-29T09:14:34.836Z,5.00
2017-10-29T09:15:38.129Z,5.97
2017-10-29T09:16:41.405Z,5.00
2017-10-29T09:17:45.322Z,4.28
2017-10-29T09:18:47.955Z,5.47
2017-10-29T09:19:51.278Z,6.80
2017-10-29T09:20:53.928Z,4.80
2017-10-29T09:21:57.228Z,6.32
2017-10-29T09:22:59.891Z,5.05
2017-10-29T09:24:03.388Z,5.10
2017-10-29T09:25:07.119Z,5.25
2017-10-29T09:26:09.646Z,5.22
2017-10-29T09:27:12.375Z,6.55
2017-10-29T09:28:14.890Z,4.60
2017-10-29T09:29:17.372Z,4.90
2017-10-29T09:30:20.015Z,4.70
2017-10-29T09:31:22.715Z,3.67
2017-10-29T09:32:25.247Z,4.47
2017-10-29T09:33:27.782Z,4.80
2017-10-29T09:34:30.282Z,5.10
2017-10-29T09:35:32.860Z,3.90
2017-10-29T09:36:35.366Z,3.78
2017-10-29T09:37:38.290Z,4.97
2017-10-29T09:38:40.787Z,5.03
2017-10-29T09:39:45.539Z,4.85
2017-10-29T09:40:50.192Z,5.22
2017-10-29T09:41:53.546Z,4.57
2017-10-29T09:42:56.656Z,6.00
2017-10-29T09:43:59.406Z,5.05
2017-10-29T09:45:02.705Z,5.22
2017-10-29T09:46:08.184Z,4.12
2017-10-29T09:47:10.671Z,4.65
2017-10-29T09:48:17.491Z,4.62
2017-10-29T09:49:34.869Z,4.28
2017-10-29T09:50:39.933Z,4.20
2017-10-29T09:51:53.048Z,4.60
2017-10-29T09:52:56.273Z,5.30
2017-10-29T09:53:58.772Z,4.05
2017-10-29T09:55:01.284Z,5.62
2017-10-29T09:56:03.755Z,5.25
2017-10-29T09:57:06.601Z,5.35
2017-10-29T09:58:09.865Z,3.72
2017-10-29T09:59:15.997Z,5.57
2017-10-29T10:00:19.349Z,4.18
2017-10-29T10:01:22.440Z,4.43
2017-10-29T10:02:25.000Z,3.55
2017-10-29T10:03:27.616Z,4.40
2017-10-29T10:04:30.321Z,3.65
2017-10-29T10:05:33.501Z,3.65
2017-10-29T10:06:37.599Z,4.55
2017-10-29T10:07:40.864Z,4.62
2017-10-29T10:08:43.524Z,4.72
2017-10-29T10:09:47.320Z,5.62
2017-10-29T10:10:50.044Z,4.05
2017-10-29T10:12:04.136Z,4.93
2017-10-29T10:13:07.710Z,4.03
2017-10-29T10:14:12.335Z,5.20
2017-10-29T10:15:15.659Z,5.35
2017-10-29T10:16:25.092Z,4.85
2017-10-29T10:17:30.391Z,4.40
2017-10-29T10:18:34.376Z,4.97
2017-10-29T10:19:38.171Z,4.43
2017-10-29T10:20:43.663Z,3.85
2017-10-29T10:21:48.309Z,4.68
2017-10-29T10:22:53.149Z,4.03
2017-10-29T10:23:57.066Z,4.50
2017-10-29T10:25:01.483Z,4.37
2017-10-29T10:26:06.046Z,4.25
2017-10-29T10:27:11.839Z,3.80
2017-10-29T10:28:23.490Z,4.95
2017-10-29T10:29:28.438Z,4.62
2017-10-29T10:30:34.458Z,4.25
2017-10-29T10:31:36.976Z,4.20
2017-10-29T10:32:40.953Z,5.25
2017-10-29T10:33:50.692Z,4.97
2017-10-29T10:34:54.268Z,4.05
2017-10-29T10:35:58.116Z,4.03
2017-10-29T10:37:01.081Z,5.30
2017-10-29T10:38:04.612Z,4.40
2017-10-29T10:39:11.287Z,3.97
2017-10-29T10:40:14.136Z,3.70
2017-10-29T10:41:17.511Z,4.45
2017-10-29T10:42:21.813Z,2.92
2017-10-29T10:43:24.339Z,4.05
2017-10-29T10:44:29.036Z,3.17
2017-10-29T10:45:31.944Z,3.40
2017-10-29T10:46:36.006Z,4.07
2017-10-29T10:47:39.737Z,3.37
2017-10-29T10:48:43.900Z,4.40
2017-10-29T10:49:47.587Z,3.42
2017-10-29T10:50:51.236Z,2.97
2017-10-29T10:51:58.381Z,3.83
2017-10-29T10:53:01.538Z,4.12
2017-10-29T10:54:04.795Z,3.47
2017-10-29T10:55:08.893Z,3.05
2017-10-29T10:56:11.494Z,5.10
2017-10-29T10:57:16.324Z,3.33
2017-10-29T10:58:20.965Z,3.50
2017-10-29T10:59:24.269Z,3.00
2017-10-29T11:00:28.070Z,3.25
2017-10-29T11:01:32.462Z,3.65
2017-10-29T11:03:58.607Z,3.67
2017-10-29T11:05:01.457Z,4.50
2017-10-29T11:06:04.088Z,3.70
2017-10-29T11:07:09.009Z,4.00
2017-10-29T11:08:14.342Z,3.92
2017-10-29T11:09:17.251Z,4.57
2017-10-29T11:10:20.630Z,3.90
2017-10-29T11:11:26.482Z,3.45
2017-10-29T11:12:28.969Z,4.75
2017-10-29T11:13:32.587Z,3.92
2017-10-29T11:14:35.852Z,4.72
2017-10-29T11:15:41.903Z,4.20
2017-10-29T11:16:44.424Z,3.87
2017-10-29T11:17:47.174Z,4.25
2017-10-29T11:18:50.390Z,4.55
2017-10-29T11:19:54.062Z,3.55
2017-10-29T11:20:58.277Z,3.28
2017-10-29T11:22:01.990Z,4.95
2017-10-29T11:23:04.489Z,3.53
2017-10-29T11:24:08.058Z,3.40
2017-10-29T11:25:10.575Z,3.85
2017-10-29T11:26:13.447Z,3.40
2017-10-29T11:27:15.936Z,3.22
2017-10-29T11:28:18.744Z,3.85
2017-10-29T11:29:22.019Z,2.90
2017-10-29T11:30:24.721Z,3.00
2017-10-29T11:31:27.244Z,3.75
2017-10-29T11:32:30.043Z,3.33
2017-10-29T11:33:32.568Z,3.25
2017-10-29T11:34:35.372Z,2.83
2017-10-29T11:35:37.882Z,3.67
2017-10-29T11:36:40.740Z,4.60
2017-10-29T11:37:43.233Z,3.55
2017-10-29T11:38:46.021Z,3.97
2017-10-29T11:39:48.505Z,3.87
2017-10-29T11:40:51.990Z,3.92
2017-10-29T11:41:54.502Z,3.60
2017-10-29T11:42:57.443Z,3.30
2017-10-29T11:43:59.980Z,4.25
2017-10-29T11:45:02.693Z,3.30
2017-10-29T11:46:05.650Z,4.47
2017-10-29T11:47:10.419Z,4.07
2017-10-29T11:48:13.581Z,3.62
2017-10-29T11:49:18.128Z,2.83
2017-10-29T11:50:21.034Z,3.05
2017-10-29T11:51:27.777Z,4.00
2017-10-29T11:52:31.545Z,3.45
2017-10-29T11:53:34.292Z,3.30
2017-10-29T11:54:39.127Z,3.55
2017-10-29T11:55:43.321Z,3.30
2017-10-29T11:56:50.223Z,3.17
2017-10-29T11:57:52.981Z,2.90
2017-10-29T11:58:56.903Z,2.60
2017-10-29T11:59:59.787Z,3.62
2017-10-29T12:01:02.284Z,3.90
2017-10-29T12:02:04.966Z,4.40
2017-10-29T12:03:07.520Z,2.97
2017-10-29T12:04:10.003Z,3.65
2017-10-29T12:05:12.605Z,3.03
2017-10-29T12:06:15.716Z,2.87
2017-10-29T12:07:23.923Z,3.50
2017-10-29T12:08:29.392Z,3.25
2017-10-29T12:09:32.881Z,3.30
2017-10-29T12:10:37.588Z,3.72
2017-10-29T12:11:40.588Z,3.67
2017-10-29T12:12:43.318Z,3.97
2017-10-29T12:13:45.813Z,3.50
2017-10-29T12:14:49.284Z,3.12
2017-10-29T12:15:52.608Z,3.45
2017-10-29T12:16:55.280Z,3.17
2017-10-29T12:17:57.783Z,4.32
2017-10-29T12:19:00.316Z,4.05
2017-10-29T12:20:02.981Z,3.60
2017-10-29T12:21:07.392Z,3.20
2017-10-29T12:22:10.077Z,3.28
2017-10-29T12:23:13.825Z,3.80
2017-10-29T12:24:17.093Z,3.42
2017-10-29T12:25:19.778Z,3.25
2017-10-29T12:26:22.390Z,2.97
2017-10-29T12:27:25.105Z,3.60
2017-10-29T12:28:28.816Z,4.10
2017-10-29T12:29:33.045Z,3.58
2017-10-29T12:30:36.546Z,3.53
2017-10-29T12:31:39.246Z,3.80
2017-10-29T12:32:42.299Z,3.05
2017-10-29T12:33:46.509Z,2.85
2017-10-29T12:34:49.670Z,3.72
2017-10-29T12:35:52.812Z,3.65
2017-10-29T12:36:55.438Z,2.97
2017-10-29T12:37:58.396Z,3.10
2017-10-29T12:39:00.912Z,3.05
2017-10-29T12:40:05.880Z,3.00
2017-10-29T12:41:09.391Z,3.03
2017-10-29T12:42:13.310Z,3.78
2017-10-29T12:43:17.298Z,2.10
2017-10-29T12:44:20.087Z,4.20
2017-10-29T12:45:22.593Z,3.87
2017-10-29T12:46:26.058Z,3.25
2017-10-29T12:47:28.638Z,3.72
2017-10-29T12:48:32.019Z,3.30
2017-10-29T12:49:35.057Z,3.10
2017-10-29T12:50:38.501Z,3.67
2017-10-29T12:51:41.757Z,3.50
2017-10-29T12:52:44.501Z,3.15
2017-10-29T12:53:47.044Z,3.05
2017-10-29T12:54:50.975Z,3.65
2017-10-29T12:55:56.797Z,2.83
2017-10-29T12:57:01.524Z,3.60
2017-10-29T12:58:04.965Z,2.90
2017-10-29T12:59:10.724Z,3.40
2017-10-29T13:00:13.217Z,4.03
2017-10-29T13:01:16.896Z,3.67
2017-10-29T13:02:21.599Z,3.45
2017-10-29T13:03:24.582Z,3.25
2017-10-29T13:04:27.080Z,3.50
2017-10-29T13:05:29.915Z,3.58
2017-10-29T13:06:32.385Z,3.40
2017-10-29T13:07:40.594Z,3.03
2017-10-29T13:08:43.456Z,4.15
2017-10-29T13:09:45.959Z,4.10
2017-10-29T13:10:48.622Z,3.20
2017-10-29T13:11:55.772Z,3.37
2017-10-29T13:12:58.592Z,3.60
2017-10-29T13:14:01.846Z,3.05
2017-10-29T13:15:04.566Z,3.37
2017-10-29T13:16:07.989Z,4.00
2017-10-29T13:17:10.960Z,3.40
2017-10-29T13:18:13.490Z,4.05
2017-10-29T13:19:17.882Z,4.10
2017-10-29T13:20:20.367Z,3.40
2017-10-29T13:21:23.952Z,3.10
2017-10-29T13:22:27.220Z,3.10
2017-10-29T13:23:29.972Z,3.10
2017-10-29T13:24:32.537Z,3.92
2017-10-29T13:25:35.248Z,3.08
2017-10-29T13:26:41.330Z,4.78
2017-10-29T13:27:47.867Z,3.53
2017-10-29T13:28:51.231Z,3.90
2017-10-29T13:29:54.039Z,2.78
2017-10-29T13:30:56.577Z,4.72
2017-10-29T13:32:00.177Z,3.95
2017-10-29T13:33:03.431Z,3.78
2017-10-29T13:34:06.080Z,3.30
2017-10-29T13:35:10.211Z,3.65
2017-10-29T13:36:13.537Z,3.58
2017-10-29T13:37:16.100Z,3.12
2017-10-29T13:38:19.034Z,3.00
2017-10-29T13:39:21.545Z,3.40
2017-10-29T13:40:25.655Z,2.47
2017-10-29T13:41:33.259Z,3.25
2017-10-29T13:42:37.236Z,3.92
2017-10-29T13:43:40.716Z,3.75
2017-10-29T13:44:44.755Z,2.67
2017-10-29T13:45:47.502Z,3.05
2017-10-29T13:46:52.627Z,3.47
2017-10-29T13:47:55.363Z,4.10
2017-10-29T13:48:58.821Z,2.97
2017-10-29T13:50:01.348Z,3.17
2017-10-29T13:51:04.156Z,3.20
2017-10-29T13:52:06.679Z,3.28
2017-10-29T13:53:09.547Z,2.58
2017-10-29T13:54:14.050Z,3.80
2017-10-29T13:55:17.667Z,3.33
2017-10-29T13:56:21.224Z,3.62
2017-10-29T13:57:26.703Z,2.62
2017-10-29T13:58:29.858Z,2.72
2017-10-29T13:59:32.748Z,3.37
2017-10-29T14:00:35.925Z,2.97
2017-10-29T14:01:39.299Z,3.15
2017-10-29T14:02:47.556Z,2.72
2017-10-29T14:03:50.443Z,4.00
2017-10-29T14:04:53.507Z,3.10
2017-10-29T14:05:56.900Z,3.25
2017-10-29T14:06:59.400Z,4.55
2017-10-29T14:08:02.834Z,3.65